Time;durP1;ratioP1;P1;durP2;ratioP2;P2;SDS_P1;SDS_P2;PMS_P1;PMS_P2;Temp;Humidity;BMP_temperature;BMP_pressure;BME280_temperature;BME280_humidity;BME280_pressure;Samples;Min_cycle;Max_cycle;Signal;HPM_P1;HPM_P2
2023/05/04 00:00:09;;;;;;;8.38;4.75;;;6.60;99.90;;;;;;5045572;28;20398;-75
2023/05/04 00:02:35;;;;;;;7.72;4.35;;;6.50;99.90;;;;;;5043532;28;20075;-74
2023/05/04 00:05:04;;;;;;;8.18;4.68;;;6.50;99.90;;;;;;5046684;28;20608;-73
2023/05/04 00:07:36;;;;;;;8.10;4.73;;;6.50;99.90;;;;;;5011930;28;20110;-73
2023/05/04 00:10:08;;;;;;;6.13;4.68;;;6.50;99.90;;;;;;5013836;28;21408;-72
2023/05/04 00:12:34;;;;;;;9.60;4.90;;;6.50;99.90;;;;;;5052200;28;20753;-74
2023/05/04 00:14:59;;;;;;;7.03;4.15;;;6.40;99.90;;;;;;5051289;28;20104;-72
2023/05/04 00:17:25;;;;;;;14.55;4.68;;;6.40;99.90;;;;;;5047796;28;20131;-72
2023/05/04 00:19:51;;;;;;;8.05;4.50;;;6.40;99.90;;;;;;5028372;28;20052;-71
2023/05/04 00:22:17;;;;;;;6.18;4.32;;;6.40;99.90;;;;;;5006578;28;20044;-73
2023/05/04 00:24:43;;;;;;;7.18;3.95;;;6.40;99.90;;;;;;5044769;28;20056;-72
2023/05/04 00:27:10;;;;;;;9.32;4.50;;;6.30;99.90;;;;;;5060299;28;20048;-74
2023/05/04 00:29:42;;;;;;;9.35;4.10;;;6.30;99.90;;;;;;5043598;28;20047;-73
2023/05/04 00:32:12;;;;;;;8.38;4.05;;;6.30;99.90;;;;;;5043544;28;20510;-73
2023/05/04 00:34:38;;;;;;;11.55;4.53;;;6.30;99.90;;;;;;5011019;28;20041;-72
2023/05/04 00:37:09;;;;;;;8.48;3.90;;;6.30;99.90;;;;;;5043751;28;20125;-72
2023/05/04 00:39:35;;;;;;;9.23;4.18;;;6.30;99.90;;;;;;5020173;28;20048;-74
2023/05/04 00:42:02;;;;;;;8.95;4.40;;;6.20;99.90;;;;;;5029753;28;20102;-74
2023/05/04 00:44:28;;;;;;;8.63;4.18;;;6.20;99.90;;;;;;5029664;28;20118;-73
2023/05/04 00:46:54;;;;;;;9.80;4.80;;;6.30;99.90;;;;;;5046121;28;20481;-74
2023/05/04 00:49:21;;;;;;;10.30;4.20;;;6.20;99.90;;;;;;5044186;28;20113;-74
2023/05/04 00:51:48;;;;;;;8.80;3.90;;;6.20;99.90;;;;;;5038847;28;20197;-75
2023/05/04 00:54:18;;;;;;;7.90;3.72;;;6.20;99.90;;;;;;5057431;28;20090;-75
2023/05/04 00:56:46;;;;;;;9.35;4.40;;;6.20;99.90;;;;;;5046446;28;20073;-73
2023/05/04 00:59:12;;;;;;;6.63;3.45;;;6.20;99.90;;;;;;5025038;28;20448;-75
2023/05/04 01:01:40;;;;;;;7.90;4.47;;;6.20;99.90;;;;;;5008537;28;20048;-74
2023/05/04 01:04:06;;;;;;;9.43;3.70;;;6.20;99.90;;;;;;5024295;28;20045;-73
2023/05/04 01:06:51;;;;;;;9.20;4.40;;;6.20;99.90;;;;;;5027359;28;20037;-73
2023/05/04 01:09:42;;;;;;;11.98;4.10;;;6.20;99.90;;;;;;5037739;28;20044;-72
2023/05/04 01:12:34;;;;;;;7.88;4.45;;;6.20;99.90;;;;;;5041886;28;20110;-72
2023/05/04 01:15:01;;;;;;;7.20;4.05;;;6.20;99.90;;;;;;5023462;28;20568;-73
2023/05/04 01:17:27;;;;;;;13.68;5.18;;;5.50;99.90;;;;;;5042095;28;20136;-75
2023/05/04 01:19:59;;;;;;;9.52;4.10;;;6.10;99.90;;;;;;5022740;28;20056;-74
2023/05/04 01:22:25;;;;;;;7.80;4.32;;;6.10;99.90;;;;;;5037908;28;20037;-72
2023/05/04 01:24:51;;;;;;;12.70;5.43;;;6.10;99.90;;;;;;5024595;28;20052;-72
2023/05/04 01:27:35;;;;;;;6.63;4.13;;;6.10;99.90;;;;;;5025633;28;20052;-74
2023/05/04 01:30:16;;;;;;;7.65;4.32;;;6.10;99.90;;;;;;5042448;28;20406;-73
2023/05/04 01:32:43;;;;;;;8.68;4.60;;;6.10;99.90;;;;;;5019169;28;20604;-73
2023/05/04 01:35:11;;;;;;;7.72;4.80;;;6.10;99.90;;;;;;5041502;28;20045;-74
2023/05/04 01:37:37;;;;;;;10.32;4.63;;;6.30;99.90;;;;;;5041561;28;20531;-72
2023/05/04 01:40:04;;;;;;;10.30;4.13;;;6.10;99.90;;;;;;5009960;28;20040;-72
2023/05/04 01:42:29;;;;;;;8.90;4.65;;;6.10;99.90;;;;;;5023102;28;20177;-72
2023/05/04 01:44:55;;;;;;;8.85;4.28;;;6.10;99.90;;;;;;5044142;28;20048;-72
2023/05/04 01:47:21;;;;;;;8.50;4.90;;;6.10;99.90;;;;;;5027837;28;20309;-74
2023/05/04 01:49:47;;;;;;;8.38;4.65;;;6.10;99.90;;;;;;5028303;28;20040;-72
2023/05/04 01:52:13;;;;;;;10.80;4.90;;;6.10;99.90;;;;;;5026624;28;20059;-72
2023/05/04 01:54:39;;;;;;;6.90;4.43;;;6.10;99.90;;;;;;5039286;28;20132;-74
2023/05/04 01:57:06;;;;;;;9.07;5.13;;;6.10;99.90;;;;;;5042626;28;20098;-75
2023/05/04 01:59:32;;;;;;;10.00;4.47;;;6.10;99.90;;;;;;5043868;28;20060;-72
2023/05/04 02:01:58;;;;;;;9.18;4.93;;;6.30;99.90;;;;;;5026135;28;20356;-74
2023/05/04 02:04:24;;;;;;;6.57;4.30;;;6.10;99.90;;;;;;5024947;28;20184;-72
2023/05/04 02:06:50;;;;;;;7.57;4.78;;;6.10;99.90;;;;;;5042606;28;20053;-76
2023/05/04 02:09:15;;;;;;;9.65;4.70;;;6.00;99.90;;;;;;5022646;28;20071;-74
2023/05/04 02:11:43;;;;;;;10.98;4.70;;;6.10;99.90;;;;;;5043164;28;20056;-73
2023/05/04 02:14:08;;;;;;;7.47;4.68;;;6.10;99.90;;;;;;5026641;28;20052;-72
2023/05/04 02:16:35;;;;;;;8.65;4.90;;;6.10;99.90;;;;;;5026769;28;20214;-74
2023/05/04 02:19:00;;;;;;;7.90;4.18;;;6.10;99.90;;;;;;5043410;28;20212;-73
2023/05/04 02:21:26;;;;;;;8.88;4.47;;;6.10;99.90;;;;;;5023915;28;20056;-74
2023/05/04 02:23:53;;;;;;;8.25;4.20;;;6.10;99.90;;;;;;5024240;28;20047;-73
2023/05/04 02:26:19;;;;;;;9.45;4.43;;;6.10;99.90;;;;;;5023304;28;20510;-73
2023/05/04 02:28:45;;;;;;;7.57;4.70;;;6.10;99.90;;;;;;5026325;28;20044;-74
2023/05/04 02:31:11;;;;;;;10.10;5.30;;;6.10;99.90;;;;;;5025625;28;21369;-73
2023/05/04 02:33:37;;;;;;;9.23;4.20;;;6.10;99.90;;;;;;5038560;28;20040;-73
2023/05/04 02:36:02;;;;;;;6.85;4.32;;;6.10;99.90;;;;;;5006727;28;20150;-73
2023/05/04 02:38:28;;;;;;;8.63;4.63;;;6.10;99.90;;;;;;5043049;28;20037;-73
2023/05/04 02:40:57;;;;;;;11.50;5.15;;;6.20;99.90;;;;;;5010829;28;20396;-74
2023/05/04 02:43:23;;;;;;;7.50;4.90;;;6.20;99.90;;;;;;5039943;28;20056;-74
2023/05/04 02:45:49;;;;;;;9.95;4.65;;;6.20;99.90;;;;;;5045368;28;20036;-73
2023/05/04 02:48:15;;;;;;;12.40;4.78;;;6.20;99.90;;;;;;5044287;28;20052;-72
2023/05/04 02:50:41;;;;;;;9.57;5.20;;;6.20;99.90;;;;;;5043365;28;20053;-73
2023/05/04 02:53:06;;;;;;;9.52;5.07;;;6.20;99.90;;;;;;5039725;28;20050;-74
2023/05/04 02:55:34;;;;;;;10.13;4.75;;;6.20;99.90;;;;;;5013210;28;20041;-75
2023/05/04 02:58:00;;;;;;;8.80;4.75;;;6.20;99.90;;;;;;5033524;28;20041;-72
2023/05/04 03:00:26;;;;;;;9.73;5.05;;;6.20;99.90;;;;;;5041522;28;20056;-74
2023/05/04 03:02:51;;;;;;;9.88;5.78;;;6.20;99.90;;;;;;5042284;28;20048;-75
2023/05/04 03:05:18;;;;;;;11.18;5.18;;;6.10;99.90;;;;;;5026508;28;20048;-72
2023/05/04 03:07:44;;;;;;;10.07;5.10;;;6.10;99.90;;;;;;5047642;28;20041;-74
2023/05/04 03:10:13;;;;;;;10.95;4.97;;;6.10;99.90;;;;;;5046055;28;20908;-72
2023/05/04 03:12:38;;;;;;;9.73;4.93;;;6.20;99.90;;;;;;5044180;28;22252;-75
2023/05/04 03:15:10;;;;;;;8.98;5.10;;;6.10;99.90;;;;;;5026963;28;20051;-73
2023/05/04 03:17:36;;;;;;;10.85;4.95;;;6.10;99.90;;;;;;5045752;28;20056;-74
2023/05/04 03:20:02;;;;;;;10.52;5.13;;;6.10;99.90;;;;;;5048990;28;20055;-73
2023/05/04 03:22:29;;;;;;;8.23;4.90;;;6.10;99.90;;;;;;5043397;28;20143;-74
2023/05/04 03:24:54;;;;;;;8.52;4.40;;;6.00;99.90;;;;;;5044017;28;20048;-73
2023/05/04 03:27:21;;;;;;;8.90;4.47;;;6.00;99.90;;;;;;5031161;28;20044;-73
2023/05/04 03:29:46;;;;;;;9.20;4.80;;;6.00;99.90;;;;;;5049320;28;20060;-74
2023/05/04 03:32:12;;;;;;;9.30;4.90;;;6.00;99.90;;;;;;5048356;28;20513;-72
2023/05/04 03:34:41;;;;;;;7.97;4.85;;;6.00;99.90;;;;;;5055902;28;20060;-72
2023/05/04 03:37:07;;;;;;;10.13;5.65;;;6.00;99.90;;;;;;5032053;28;20052;-74
2023/05/04 03:39:32;;;;;;;8.07;4.85;;;6.30;99.90;;;;;;5012596;28;20040;-72
2023/05/04 03:42:07;;;;;;;6.30;4.32;;;6.00;99.90;;;;;;5046539;28;20053;-74
2023/05/04 03:44:37;;;;;;;8.75;5.07;;;6.00;99.90;;;;;;5046701;28;20040;-73
2023/05/04 03:47:09;;;;;;;13.20;5.85;;;5.90;99.90;;;;;;4998712;28;21002;-72
2023/05/04 03:49:34;;;;;;;10.02;5.38;;;5.90;99.90;;;;;;5028548;28;20044;-74
2023/05/04 03:52:00;;;;;;;10.45;5.22;;;5.90;99.90;;;;;;5028887;28;20056;-72
2023/05/04 03:54:26;;;;;;;10.02;4.97;;;5.90;99.90;;;;;;5045339;28;20048;-71
2023/05/04 03:56:52;;;;;;;8.60;5.03;;;5.90;99.90;;;;;;5049002;28;20078;-74
2023/05/04 03:59:18;;;;;;;9.65;5.15;;;5.90;99.90;;;;;;5042853;28;20075;-74
2023/05/04 04:01:43;;;;;;;8.75;4.95;;;5.90;99.90;;;;;;5046020;28;20376;-73
2023/05/04 04:04:09;;;;;;;10.20;5.25;;;5.90;99.90;;;;;;5025998;28;20399;-72
2023/05/04 04:06:35;;;;;;;8.88;5.28;;;5.90;99.90;;;;;;5024700;28;20056;-73
2023/05/04 04:09:01;;;;;;;12.48;5.05;;;5.90;99.90;;;;;;5042751;28;20055;-73
2023/05/04 04:11:27;;;;;;;11.32;5.60;;;5.90;99.90;;;;;;5041190;28;20045;-75
2023/05/04 04:13:52;;;;;;;12.23;5.35;;;5.90;99.90;;;;;;5043473;28;20044;-74
2023/05/04 04:16:22;;;;;;;11.65;5.55;;;5.90;99.90;;;;;;5044157;28;21001;-74
2023/05/04 04:18:48;;;;;;;8.80;5.35;;;5.90;99.90;;;;;;5027502;28;20105;-74
2023/05/04 04:21:15;;;;;;;8.65;5.50;;;5.90;99.90;;;;;;5026172;28;21250;-76
2023/05/04 04:23:41;;;;;;;8.52;5.28;;;5.90;99.90;;;;;;5039477;28;20041;-73
2023/05/04 04:26:07;;;;;;;10.82;5.80;;;6.00;99.90;;;;;;5046547;28;20596;-73
2023/05/04 04:28:35;;;;;;;9.05;5.05;;;5.90;99.90;;;;;;5042884;28;20044;-75
2023/05/04 04:31:02;;;;;;;11.48;5.88;;;6.00;99.90;;;;;;5025876;28;20395;-72
2023/05/04 04:33:29;;;;;;;9.02;5.65;;;6.00;99.90;;;;;;5009958;28;20048;-74
2023/05/04 04:35:55;;;;;;;10.32;5.68;;;6.00;99.90;;;;;;5044904;28;20558;-73
2023/05/04 04:38:21;;;;;;;13.63;6.07;;;6.00;99.90;;;;;;5042960;28;20046;-73
2023/05/04 04:40:47;;;;;;;12.68;5.80;;;6.00;99.90;;;;;;5041022;28;20048;-73
2023/05/04 04:43:15;;;;;;;12.00;5.88;;;6.00;99.90;;;;;;5041619;28;20059;-74
2023/05/04 04:45:40;;;;;;;15.15;5.68;;;6.10;99.90;;;;;;5025497;28;20049;-74
2023/05/04 04:48:06;;;;;;;10.02;5.90;;;6.10;99.90;;;;;;5040892;28;20032;-75
2023/05/04 04:50:32;;;;;;;14.73;5.85;;;6.20;99.90;;;;;;5044840;28;20055;-73
2023/05/04 04:52:58;;;;;;;13.20;5.82;;;6.20;99.90;;;;;;5023121;28;20051;-73
2023/05/04 04:55:25;;;;;;;11.82;6.30;;;4.90;99.90;;;;;;5043865;28;20052;-74
2023/05/04 04:57:56;;;;;;;10.52;6.05;;;6.20;99.90;;;;;;5009712;28;20205;-73
2023/05/04 05:00:22;;;;;;;10.90;5.75;;;6.30;99.90;;;;;;5024674;28;20518;-73
2023/05/04 05:02:51;;;;;;;11.27;5.88;;;6.30;99.90;;;;;;5009568;28;20566;-73
2023/05/04 05:05:17;;;;;;;10.38;5.80;;;6.40;99.90;;;;;;5009714;28;20169;-72
2023/05/04 05:07:44;;;;;;;10.15;5.90;;;6.40;99.90;;;;;;5024983;28;20060;-75
2023/05/04 05:10:10;;;;;;;10.43;6.25;;;6.50;99.90;;;;;;5024412;28;20131;-73
2023/05/04 05:12:36;;;;;;;11.05;6.22;;;6.50;99.90;;;;;;5029395;28;20063;-74
2023/05/04 05:15:03;;;;;;;12.98;5.75;;;6.50;99.90;;;;;;4993751;28;20082;-74
2023/05/04 05:17:34;;;;;;;10.65;5.80;;;6.60;99.90;;;;;;5028544;28;20478;-73
2023/05/04 05:20:00;;;;;;;13.77;5.80;;;6.60;99.90;;;;;;5025051;28;20873;-74
2023/05/04 05:22:26;;;;;;;10.98;6.00;;;6.70;99.90;;;;;;5020302;28;20080;-75
2023/05/04 05:24:58;;;;;;;10.98;5.88;;;6.70;99.90;;;;;;5035809;28;20040;-73
2023/05/04 05:27:35;;;;;;;15.07;5.55;;;6.80;99.90;;;;;;5040012;28;20056;-73
2023/05/04 05:30:01;;;;;;;11.07;5.50;;;6.80;99.90;;;;;;5041857;28;20121;-74
2023/05/04 05:32:27;;;;;;;10.13;5.30;;;6.90;99.90;;;;;;5041239;28;20044;-73
2023/05/04 05:34:56;;;;;;;11.18;6.07;;;6.90;99.90;;;;;;5019209;28;20871;-74
2023/05/04 05:37:22;;;;;;;10.18;5.72;;;7.00;99.90;;;;;;5040666;28;20105;-72
2023/05/04 05:39:48;;;;;;;11.77;5.40;;;7.10;99.90;;;;;;5027411;28;20057;-73
2023/05/04 05:42:15;;;;;;;9.50;5.40;;;7.10;99.90;;;;;;5040072;28;20040;-75
2023/05/04 05:44:41;;;;;;;10.75;5.70;;;7.20;99.90;;;;;;5023214;28;20047;-72
2023/05/04 05:47:06;;;;;;;9.13;5.72;;;7.30;99.90;;;;;;5025834;28;21839;-75
2023/05/04 05:49:44;;;;;;;12.95;6.10;;;7.40;99.90;;;;;;5020479;28;20050;-76
2023/05/04 05:52:15;;;;;;;12.50;5.75;;;7.40;99.90;;;;;;5030256;28;20081;-73
2023/05/04 05:54:41;;;;;;;10.27;5.43;;;7.50;99.90;;;;;;5045848;28;20582;-74
2023/05/04 05:57:06;;;;;;;15.70;6.43;;;7.60;99.90;;;;;;5024126;28;20486;-74
2023/05/04 05:59:32;;;;;;;9.52;5.40;;;7.60;99.90;;;;;;5025454;28;20044;-72
2023/05/04 06:01:58;;;;;;;10.43;5.25;;;7.70;99.90;;;;;;5021227;28;20048;-73
2023/05/04 06:04:24;;;;;;;10.10;5.43;;;7.80;99.90;;;;;;5040561;28;20163;-72
2023/05/04 06:06:51;;;;;;;8.05;4.88;;;7.90;99.90;;;;;;5008139;28;20102;-74
2023/05/04 06:09:18;;;;;;;12.73;6.13;;;8.00;99.90;;;;;;5022889;28;20049;-74
2023/05/04 06:11:45;;;;;;;11.57;5.50;;;8.10;99.90;;;;;;5039238;28;20044;-73
2023/05/04 06:14:11;;;;;;;12.25;5.78;;;8.20;99.90;;;;;;5041484;28;20087;-74
2023/05/04 06:16:40;;;;;;;11.02;5.45;;;8.30;99.90;;;;;;5026766;28;20274;-74
2023/05/04 06:19:06;;;;;;;10.13;5.35;;;8.40;99.90;;;;;;5024207;28;20608;-76
2023/05/04 06:21:32;;;;;;;11.43;5.63;;;8.50;99.90;;;;;;5045562;28;20036;-74
2023/05/04 06:23:57;;;;;;;12.10;5.05;;;8.50;99.90;;;;;;5044838;28;20487;-74
2023/05/04 06:26:24;;;;;;;10.30;5.00;;;8.60;99.90;;;;;;5035734;28;20040;-74
2023/05/04 06:28:50;;;;;;;11.40;5.65;;;8.70;99.90;;;;;;5037131;28;20056;-76
2023/05/04 06:31:19;;;;;;;13.27;6.18;;;8.80;99.90;;;;;;5019749;28;20139;-74
2023/05/04 06:33:45;;;;;;;11.63;5.65;;;8.90;99.90;;;;;;5039487;28;20045;-74
2023/05/04 06:36:13;;;;;;;11.27;5.53;;;9.00;99.90;;;;;;4967327;28;20136;-74
2023/05/04 06:38:39;;;;;;;11.98;5.35;;;9.10;99.90;;;;;;4988515;28;20050;-75
2023/05/04 06:41:05;;;;;;;9.60;5.72;;;9.10;99.90;;;;;;4948128;28;20327;-74
2023/05/04 06:43:31;;;;;;;10.63;4.95;;;9.20;99.90;;;;;;4991175;28;20049;-74
2023/05/04 06:46:03;;;;;;;9.57;5.03;;;9.20;99.90;;;;;;4958871;28;20579;-73
2023/05/04 06:48:30;;;;;;;8.75;4.82;;;9.30;99.90;;;;;;4973220;28;20041;-74
2023/05/04 06:50:56;;;;;;;10.70;5.50;;;9.40;99.90;;;;;;4990029;28;20061;-72
2023/05/04 06:53:22;;;;;;;9.20;5.15;;;9.50;99.90;;;;;;4986728;28;20045;-73
2023/05/04 06:55:48;;;;;;;11.25;5.60;;;9.60;99.90;;;;;;4984053;28;20508;-74
2023/05/04 06:58:17;;;;;;;8.45;4.70;;;9.70;99.90;;;;;;4971858;28;20045;-75
2023/05/04 07:00:43;;;;;;;11.57;5.43;;;9.80;99.90;;;;;;4972908;28;20034;-74
2023/05/04 07:03:08;;;;;;;8.38;4.82;;;9.90;99.90;;;;;;4956450;28;20069;-74
2023/05/04 07:05:36;;;;;;;11.60;5.30;;;10.10;99.90;;;;;;4987849;28;20577;-75
2023/05/04 07:08:05;;;;;;;11.93;5.13;;;10.20;99.90;;;;;;5016235;28;20095;-74
2023/05/04 07:10:32;;;;;;;7.50;5.07;;;10.40;99.90;;;;;;5022444;28;20051;-74
2023/05/04 07:12:58;;;;;;;9.43;5.53;;;10.50;99.90;;;;;;5041530;28;20076;-73
2023/05/04 07:15:23;;;;;;;11.25;5.30;;;10.60;99.90;;;;;;5043190;28;20051;-74
2023/05/04 07:17:49;;;;;;;11.10;5.25;;;10.80;99.90;;;;;;5047304;28;20534;-74
2023/05/04 07:20:15;;;;;;;9.82;4.78;;;10.90;99.90;;;;;;5034513;28;20067;-74
2023/05/04 07:22:41;;;;;;;12.70;5.47;;;11.10;99.90;;;;;;5048261;28;20491;-74
2023/05/04 07:25:07;;;;;;;8.63;5.35;;;11.30;99.90;;;;;;5042329;28;20044;-73
2023/05/04 07:27:36;;;;;;;8.18;4.75;;;11.50;99.90;;;;;;5043855;28;20045;-73
2023/05/04 07:30:08;;;;;;;8.27;4.85;;;12.60;99.90;;;;;;5033992;28;20555;-74
2023/05/04 07:32:34;;;;;;;9.80;4.90;;;11.80;99.90;;;;;;5010111;28;20174;-76
2023/05/04 07:35:00;;;;;;;8.57;5.00;;;12.00;99.90;;;;;;5030858;28;20312;-75
2023/05/04 07:37:25;;;;;;;10.48;5.28;;;12.10;99.90;;;;;;4998425;28;20099;-74
2023/05/04 07:39:51;;;;;;;9.05;4.80;;;12.30;99.90;;;;;;5046818;28;20101;-76
2023/05/04 07:42:17;;;;;;;11.18;5.30;;;12.40;99.90;;;;;;5015419;28;20826;-74
2023/05/04 07:44:43;;;;;;;10.07;4.50;;;12.50;99.90;;;;;;5047070;28;20048;-76
2023/05/04 07:47:08;;;;;;;8.52;5.03;;;12.60;99.90;;;;;;5044656;28;20381;-74
2023/05/04 07:49:34;;;;;;;9.13;4.65;;;12.60;99.90;;;;;;5045261;28;20055;-75
2023/05/04 07:52:00;;;;;;;8.88;4.85;;;12.70;99.90;;;;;;5049290;28;20037;-73
2023/05/04 07:54:26;;;;;;;7.80;4.82;;;12.70;99.90;;;;;;5046271;28;20639;-75
2023/05/04 07:56:52;;;;;;;8.20;5.10;;;12.80;99.90;;;;;;5047603;28;20637;-75
2023/05/04 07:59:20;;;;;;;12.25;5.18;;;12.80;99.90;;;;;;5048397;28;20067;-75
2023/05/04 08:01:46;;;;;;;9.23;4.88;;;12.80;99.90;;;;;;5030834;28;20163;-73
2023/05/04 08:04:12;;;;;;;11.50;4.60;;;12.90;99.90;;;;;;5046562;28;20052;-73
2023/05/04 08:06:38;;;;;;;8.25;4.50;;;12.90;99.90;;;;;;5032399;28;20071;-74
2023/05/04 08:09:05;;;;;;;8.02;4.15;;;13.00;99.90;;;;;;5013910;28;20110;-75
2023/05/04 08:11:33;;;;;;;10.43;4.80;;;13.00;99.90;;;;;;5045477;28;20051;-73
2023/05/04 08:13:59;;;;;;;9.07;4.75;;;13.10;99.90;;;;;;5029844;28;20533;-74
2023/05/04 08:16:26;;;;;;;9.85;4.95;;;13.10;99.90;;;;;;5046326;28;20036;-76
2023/05/04 08:18:52;;;;;;;8.13;4.78;;;13.30;99.90;;;;;;5046600;28;20128;-74
2023/05/04 08:21:18;;;;;;;9.43;5.00;;;13.50;99.90;;;;;;5046288;28;20093;-74
2023/05/04 08:23:44;;;;;;;12.23;5.50;;;13.60;99.90;;;;;;5026169;28;20180;-75
2023/05/04 08:26:10;;;;;;;9.65;4.88;;;13.70;99.90;;;;;;5027023;28;21103;-74
2023/05/04 08:28:38;;;;;;;11.85;5.13;;;13.70;99.90;;;;;;5013871;28;20056;-74
2023/05/04 08:31:09;;;;;;;9.38;4.30;;;13.90;99.90;;;;;;5046254;28;20110;-75
2023/05/04 08:33:35;;;;;;;9.35;4.72;;;14.10;99.90;;;;;;5048381;28;20056;-75
2023/05/04 08:36:05;;;;;;;9.70;4.90;;;14.30;99.90;;;;;;5029711;28;20106;-74
2023/05/04 08:38:31;;;;;;;7.85;5.00;;;14.50;99.90;;;;;;5048526;28;20040;-74
2023/05/04 08:41:00;;;;;;;6.97;4.65;;;14.80;99.90;;;;;;5046730;28;20640;-76
2023/05/04 08:43:28;;;;;;;7.35;4.43;;;15.10;99.90;;;;;;5049321;28;20054;-74
2023/05/04 08:45:55;;;;;;;7.63;4.65;;;15.50;99.90;;;;;;5031366;28;20036;-73
2023/05/04 08:48:26;;;;;;;8.38;4.85;;;15.90;99.90;;;;;;5044319;28;20060;-75
2023/05/04 08:50:52;;;;;;;8.38;4.65;;;16.30;99.90;;;;;;5015374;28;20044;-75
2023/05/04 08:53:20;;;;;;;7.32;4.03;;;16.60;99.90;;;;;;5028163;28;20506;-74
2023/05/04 08:55:49;;;;;;;10.73;4.80;;;16.90;99.90;;;;;;5043181;28;20526;-74
2023/05/04 08:58:17;;;;;;;11.77;4.90;;;17.10;99.90;;;;;;5049154;28;21191;-74
2023/05/04 09:00:44;;;;;;;8.30;4.68;;;17.30;99.90;;;;;;5028968;28;20102;-74
2023/05/04 09:03:11;;;;;;;7.18;4.60;;;17.50;99.90;;;;;;5059631;28;20531;-76
2023/05/04 09:05:37;;;;;;;7.55;4.25;;;17.80;99.90;;;;;;5045467;28;20071;-76
2023/05/04 09:08:03;;;;;;;8.27;4.03;;;18.00;99.90;;;;;;5044514;28;20147;-74
2023/05/04 09:10:30;;;;;;;7.97;4.40;;;18.20;99.90;;;;;;5048546;28;20050;-74
2023/05/04 09:12:56;;;;;;;9.20;4.18;;;18.40;99.90;;;;;;5047092;28;20177;-74
2023/05/04 09:15:22;;;;;;;9.07;5.13;;;18.50;99.90;;;;;;5048989;28;20147;-75
2023/05/04 09:18:01;;;;;;;9.20;4.63;;;18.60;99.90;;;;;;5047253;28;20525;-74
2023/05/04 09:20:28;;;;;;;6.93;4.05;;;18.80;99.90;;;;;;5047671;28;20148;-75
2023/05/04 09:23:02;;;;;;;11.52;3.95;;;19.00;99.90;;;;;;5046353;28;20155;-74
2023/05/04 09:25:28;;;;;;;8.82;4.05;;;19.20;99.90;;;;;;5028907;28;20044;-74
2023/05/04 09:27:54;;;;;;;8.40;4.35;;;19.40;99.90;;;;;;5026235;28;20501;-74
2023/05/04 09:30:21;;;;;;;6.53;3.95;;;19.70;99.90;;;;;;5017996;28;20040;-74
2023/05/04 09:32:48;;;;;;;7.40;3.70;;;19.90;99.90;;;;;;5030841;28;20044;-74
2023/05/04 09:35:17;;;;;;;6.63;3.65;;;20.20;99.90;;;;;;5046387;28;20286;-76
2023/05/04 09:37:48;;;;;;;8.20;4.35;;;19.50;99.90;;;;;;5048911;28;20080;-75
2023/05/04 09:40:21;;;;;;;7.55;4.05;;;20.40;99.80;;;;;;5030780;28;20052;-76
2023/05/04 09:42:55;;;;;;;8.55;3.60;;;20.50;99.50;;;;;;5010891;28;20131;-73
2023/05/04 09:45:21;;;;;;;6.67;3.50;;;20.70;98.50;;;;;;5045051;28;20163;-75
2023/05/04 09:47:47;;;;;;;7.78;3.53;;;21.00;99.00;;;;;;5047726;28;20390;-73
2023/05/04 09:50:15;;;;;;;7.68;4.07;;;21.20;98.60;;;;;;5051202;28;20052;-75
2023/05/04 09:52:43;;;;;;;5.80;4.07;;;21.30;98.00;;;;;;5052364;28;20048;-74
2023/05/04 09:55:16;;;;;;;8.00;3.95;;;21.40;97.70;;;;;;5014172;28;20933;-75
2023/05/04 09:57:43;;;;;;;7.80;3.75;;;21.40;97.00;;;;;;5029853;28;20264;-75
2023/05/04 10:00:11;;;;;;;9.20;3.53;;;21.40;97.00;;;;;;5014204;28;20170;-75
2023/05/04 10:02:39;;;;;;;6.38;3.78;;;21.40;96.70;;;;;;5029946;28;20137;-74
2023/05/04 10:05:09;;;;;;;5.32;3.22;;;21.50;96.40;;;;;;5045531;28;20348;-74
2023/05/04 10:07:36;;;;;;;6.97;3.90;;;21.60;96.00;;;;;;5042920;28;20045;-76
2023/05/04 10:10:13;;;;;;;5.70;3.13;;;21.80;96.00;;;;;;5041357;28;20067;-75
2023/05/04 10:12:39;;;;;;;9.18;3.70;;;22.10;95.70;;;;;;5015507;28;20037;-75
2023/05/04 10:15:07;;;;;;;5.90;3.60;;;22.40;95.00;;;;;;5041234;28;20033;-75
2023/05/04 10:17:33;;;;;;;10.65;3.92;;;22.50;94.30;;;;;;5039654;28;20106;-74
2023/05/04 10:20:38;;;;;;;6.40;3.30;;;22.50;94.10;;;;;;5037697;28;20131;-74
2023/05/04 10:23:26;;;;;;;8.35;3.58;;;22.40;93.10;;;;;;5008901;28;20099;-75
2023/05/04 10:26:13;;;;;;;7.57;3.55;;;22.30;93.60;;;;;;5039346;28;20052;-75
2023/05/04 10:28:38;;;;;;;5.47;3.70;;;22.30;93.20;;;;;;5042260;28;20060;-74
2023/05/04 10:31:07;;;;;;;6.72;3.45;;;22.30;93.50;;;;;;5044142;28;20052;-75
2023/05/04 10:33:40;;;;;;;6.63;4.20;;;22.30;93.20;;;;;;5028606;28;20068;-72
2023/05/04 10:36:08;;;;;;;6.88;3.60;;;22.50;92.80;;;;;;5036264;28;20182;-73
2023/05/04 10:38:40;;;;;;;8.48;4.03;;;22.60;93.00;;;;;;5008356;28;20055;-74
2023/05/04 10:41:16;;;;;;;6.78;3.60;;;22.70;92.40;;;;;;5008285;28;20102;-75
2023/05/04 10:43:49;;;;;;;7.40;4.07;;;22.80;92.10;;;;;;5037608;28;20060;-73
2023/05/04 10:46:20;;;;;;;6.97;3.70;;;23.00;92.40;;;;;;5037974;28;20389;-73
2023/05/04 10:48:46;;;;;;;5.53;3.20;;;23.10;92.20;;;;;;5025080;28;20094;-73
2023/05/04 10:51:23;;;;;;;6.82;3.53;;;23.10;91.60;;;;;;5041680;28;20569;-74
2023/05/04 10:53:49;;;;;;;7.15;4.25;;;23.20;90.50;;;;;;5052946;28;20135;-74
2023/05/04 10:56:26;;;;;;;6.90;3.42;;;23.30;91.20;;;;;;5061369;28;20153;-74
2023/05/04 10:58:53;;;;;;;5.35;3.47;;;23.50;90.60;;;;;;5056681;28;20586;-76
2023/05/04 11:01:20;;;;;;;6.80;3.50;;;23.80;90.60;;;;;;5063401;28;20036;-74
2023/05/04 11:03:49;;;;;;;7.32;3.83;;;24.00;89.90;;;;;;5056418;28;20045;-74
2023/05/04 11:06:22;;;;;;;7.50;3.42;;;24.20;89.80;;;;;;5052725;28;20162;-75
2023/05/04 11:09:02;;;;;;;6.85;3.28;;;24.20;86.70;;;;;;5064177;28;20577;-75
2023/05/04 11:11:28;;;;;;;7.40;3.17;;;24.50;86.80;;;;;;5063057;28;20051;-75
2023/05/04 11:13:54;;;;;;;5.95;3.13;;;24.60;87.10;;;;;;5055098;28;20254;-76
2023/05/04 11:16:24;;;;;;;6.43;3.47;;;24.70;86.40;;;;;;5032354;28;20051;-74
2023/05/04 11:18:50;;;;;;;6.05;3.28;;;24.70;84.70;;;;;;5037843;28;20056;-75
2023/05/04 11:21:26;;;;;;;6.82;3.30;;;24.70;84.80;;;;;;5059137;28;20082;-74
2023/05/04 11:23:56;;;;;;;7.20;3.55;;;24.80;83.80;;;;;;5057203;28;20064;-74
2023/05/04 11:26:23;;;;;;;7.63;3.30;;;24.70;83.80;;;;;;5076222;28;20043;-74
2023/05/04 11:28:49;;;;;;;5.75;3.00;;;24.80;83.60;;;;;;5063818;28;20139;-74
2023/05/04 11:31:20;;;;;;;6.15;3.42;;;25.00;83.30;;;;;;5062011;28;20040;-73
2023/05/04 11:33:46;;;;;;;7.95;3.60;;;25.30;82.30;;;;;;5052286;28;20060;-73
2023/05/04 11:36:13;;;;;;;6.15;3.28;;;25.50;81.70;;;;;;5050012;28;20036;-73
2023/05/04 11:38:42;;;;;;;6.07;3.47;;;25.40;81.30;;;;;;5063544;28;20139;-74
2023/05/04 11:41:11;;;;;;;6.85;3.78;;;25.50;81.00;;;;;;5063271;28;20041;-74
2023/05/04 11:43:44;;;;;;;6.53;3.88;;;25.60;80.30;;;;;;5067848;28;20040;-75
2023/05/04 11:46:10;;;;;;;8.10;3.55;;;25.80;79.70;;;;;;5057436;28;20495;-75
2023/05/04 11:48:37;;;;;;;5.47;3.63;;;25.80;79.40;;;;;;5061969;28;20044;-76
2023/05/04 11:51:05;;;;;;;5.57;3.55;;;25.90;79.20;;;;;;5063049;28;20056;-75
2023/05/04 11:53:38;;;;;;;8.55;3.72;;;25.90;78.30;;;;;;5037193;28;20059;-74
2023/05/04 11:56:08;;;;;;;6.50;3.88;;;26.00;77.60;;;;;;5075713;28;20041;-75
2023/05/04 11:58:35;;;;;;;7.07;3.58;;;26.00;77.30;;;;;;5064802;28;20360;-76
2023/05/04 12:01:02;;;;;;;7.63;3.42;;;26.00;77.50;;;;;;5068433;28;20119;-74
2023/05/04 12:03:33;;;;;;;5.75;3.47;;;26.00;76.90;;;;;;5068668;28;20384;-74
2023/05/04 12:06:01;;;;;;;6.20;3.28;;;26.00;76.70;;;;;;5074705;28;20236;-74
2023/05/04 12:08:48;;;;;;;5.95;3.67;;;26.00;76.30;;;;;;5070793;28;21751;-74
2023/05/04 12:11:24;;;;;;;6.80;3.85;;;26.00;75.80;;;;;;5068230;28;20052;-75
2023/05/04 12:14:14;;;;;;;12.80;3.88;;;26.00;75.30;;;;;;5053958;28;20086;-75
2023/05/04 12:16:41;;;;;;;5.75;3.38;;;26.00;73.80;;;;;;5040374;28;20096;-76
2023/05/04 12:19:26;;;;;;;6.72;3.67;;;26.00;75.30;;;;;;5088164;28;20118;-75
2023/05/04 12:21:53;;;;;;;6.50;3.45;;;26.00;73.70;;;;;;5065013;28;20146;-73
2023/05/04 12:24:23;;;;;;;6.88;3.70;;;26.10;75.40;;;;;;5051268;28;20076;-75
2023/05/04 12:26:50;;;;;;;6.93;3.78;;;26.30;74.60;;;;;;5072197;28;20059;-73
2023/05/04 12:29:16;;;;;;;6.25;3.60;;;26.40;74.10;;;;;;5072069;28;20052;-75
2023/05/04 12:31:41;;;;;;;4.93;3.72;;;26.50;74.10;;;;;;5054810;28;20039;-73
2023/05/04 12:34:07;;;;;;;7.38;3.88;;;26.50;73.30;;;;;;5063247;28;20475;-76
2023/05/04 12:36:33;;;;;;;4.97;3.40;;;26.50;73.20;;;;;;5063524;28;20113;-74
2023/05/04 12:38:59;;;;;;;5.22;3.20;;;26.50;73.00;;;;;;5031209;28;20051;-74
2023/05/04 12:41:30;;;;;;;6.30;3.50;;;26.60;73.20;;;;;;5053477;28;22669;-74
2023/05/04 12:43:56;;;;;;;5.55;3.42;;;26.60;73.30;;;;;;5050613;28;20059;-76
2023/05/04 12:46:21;;;;;;;6.72;3.75;;;26.50;73.20;;;;;;5051350;28;20041;-73
2023/05/04 12:48:47;;;;;;;5.30;4.05;;;26.20;72.30;;;;;;5067695;28;20052;-74
2023/05/04 12:51:13;;;;;;;7.75;4.00;;;25.90;72.20;;;;;;5034089;28;20541;-74